Time;durP1;ratioP1;P1;durP2;ratioP2;P2;SDS_P1;SDS_P2;PMS_P1;PMS_P2;Temp;Humidity;BMP_temperature;BMP_pressure;BME280_temperature;BME280_humidity;BME280_pressure;Samples;Min_cycle;Max_cycle;Signal;HPM_P1;HPM_P2
2020/12/14 00:02:06;;;;;;;18.23;10.03;;;2.80;99.90;;;;;;5078469;28;20269;-72
2020/12/14 00:04:32;;;;;;;18.83;11.30;;;2.80;99.90;;;;;;5077826;28;20236;-73
2020/12/14 00:06:59;;;;;;;21.83;11.40;;;2.80;99.90;;;;;;5082475;28;20207;-73
2020/12/14 00:09:25;;;;;;;18.07;10.70;;;2.70;99.90;;;;;;5076708;28;20661;-72
2020/12/14 00:11:52;;;;;;;18.73;11.60;;;2.80;99.90;;;;;;5077072;28;20232;-72
2020/12/14 00:14:18;;;;;;;21.40;10.63;;;2.70;99.90;;;;;;5079124;28;20212;-72
2020/12/14 00:16:44;;;;;;;15.53;9.47;;;2.70;99.90;;;;;;5083536;28;20237;-72
2020/12/14 00:19:11;;;;;;;14.20;8.37;;;2.80;99.90;;;;;;5082392;28;20209;-72
2020/12/14 00:21:38;;;;;;;15.90;8.87;;;2.70;99.90;;;;;;5076821;28;20335;-72
2020/12/14 00:24:04;;;;;;;14.73;9.20;;;2.70;99.90;;;;;;5075559;28;20224;-73
2020/12/14 00:26:31;;;;;;;14.13;8.07;;;2.70;99.90;;;;;;5075614;28;20665;-72
2020/12/14 00:29:00;;;;;;;13.37;7.17;;;2.80;99.90;;;;;;5079418;28;20208;-73
2020/12/14 00:31:26;;;;;;;10.47;6.93;;;2.80;99.90;;;;;;5081485;28;20208;-73
2020/12/14 00:33:54;;;;;;;9.60;6.03;;;2.80;99.90;;;;;;5077290;28;20209;-72
2020/12/14 00:36:21;;;;;;;10.23;6.60;;;2.70;99.90;;;;;;5078732;28;20205;-71
2020/12/14 00:38:47;;;;;;;10.03;6.40;;;2.70;99.90;;;;;;5079193;28;20209;-72
2020/12/14 00:41:18;;;;;;;8.40;5.83;;;2.70;99.90;;;;;;5078399;28;20212;-73
2020/12/14 00:43:45;;;;;;;8.37;4.90;;;2.70;99.90;;;;;;5076230;28;20212;-73
2020/12/14 00:46:12;;;;;;;9.50;5.83;;;2.70;99.90;;;;;;5087331;28;21368;-73
2020/12/14 00:48:39;;;;;;;8.13;5.57;;;2.70;99.90;;;;;;5093006;28;20633;-73
2020/12/14 00:51:05;;;;;;;9.33;5.50;;;2.70;99.90;;;;;;5083894;28;20558;-73
2020/12/14 00:53:33;;;;;;;10.43;6.27;;;2.70;99.90;;;;;;5080684;28;20662;-73
2020/12/14 00:56:01;;;;;;;11.10;5.63;;;2.70;99.90;;;;;;5075250;28;20556;-73
2020/12/14 00:58:28;;;;;;;8.67;5.97;;;2.70;99.90;;;;;;5078032;28;20216;-73
2020/12/14 01:00:54;;;;;;;9.33;6.40;;;2.70;99.90;;;;;;5081701;28;20275;-73
2020/12/14 01:03:21;;;;;;;8.77;5.73;;;2.70;99.90;;;;;;5082364;28;20308;-73
2020/12/14 01:05:47;;;;;;;9.60;5.97;;;2.70;99.90;;;;;;5084625;28;20881;-72
2020/12/14 01:08:14;;;;;;;9.20;6.10;;;2.60;99.90;;;;;;5084412;28;20213;-73
2020/12/14 01:10:42;;;;;;;10.73;6.13;;;2.60;99.90;;;;;;5077818;28;20304;-73
2020/12/14 01:13:08;;;;;;;9.70;6.10;;;2.70;99.90;;;;;;5086535;28;20295;-72
2020/12/14 01:15:35;;;;;;;11.13;6.90;;;2.60;99.90;;;;;;5078787;28;20212;-72
2020/12/14 01:18:02;;;;;;;9.93;6.17;;;2.70;99.90;;;;;;5085925;28;20204;-72
2020/12/14 01:20:28;;;;;;;8.13;5.23;;;2.60;99.90;;;;;;5076554;28;20243;-72
2020/12/14 01:22:54;;;;;;;9.10;5.20;;;2.60;99.90;;;;;;5079775;28;20220;-72
2020/12/14 01:25:21;;;;;;;8.17;5.43;;;2.70;99.90;;;;;;5073958;28;20673;-72
2020/12/14 01:27:48;;;;;;;7.53;4.37;;;2.70;99.90;;;;;;5078407;28;20214;-73
2020/12/14 01:30:14;;;;;;;9.33;5.77;;;2.70;99.90;;;;;;5075929;28;20649;-73
2020/12/14 01:32:41;;;;;;;9.23;5.60;;;2.70;99.90;;;;;;5076372;28;20240;-73
2020/12/14 01:35:07;;;;;;;10.67;5.80;;;2.70;99.90;;;;;;5076476;28;20251;-72
2020/12/14 01:37:34;;;;;;;9.97;6.10;;;2.70;99.90;;;;;;5074669;28;20676;-72
2020/12/14 01:40:00;;;;;;;7.73;5.20;;;2.70;99.90;;;;;;5072681;28;20202;-73
2020/12/14 01:42:26;;;;;;;9.33;5.57;;;2.70;99.90;;;;;;5076258;28;20578;-73
2020/12/14 01:44:54;;;;;;;9.73;5.67;;;2.60;99.90;;;;;;5082286;28;20296;-73
2020/12/14 01:47:30;;;;;;;10.87;6.37;;;2.70;99.90;;;;;;5077284;28;20288;-73
2020/12/14 01:49:57;;;;;;;10.30;5.93;;;2.60;99.90;;;;;;5077974;28;20193;-73
2020/12/14 01:52:24;;;;;;;13.27;6.83;;;2.60;99.90;;;;;;5077933;28;20197;-73
2020/12/14 01:54:52;;;;;;;12.50;6.57;;;2.60;99.90;;;;;;5083048;28;20213;-73
2020/12/14 01:57:19;;;;;;;8.40;5.30;;;2.60;99.90;;;;;;5081038;28;20213;-74
2020/12/14 01:59:45;;;;;;;7.07;5.03;;;2.60;99.90;;;;;;5076117;28;20201;-72
2020/12/14 02:02:13;;;;;;;8.77;5.03;;;2.60;99.90;;;;;;5073477;28;20252;-72
2020/12/14 02:04:39;;;;;;;7.93;5.07;;;2.70;99.90;;;;;;5077776;28;20205;-72
2020/12/14 02:07:06;;;;;;;8.77;5.03;;;2.70;99.90;;;;;;5075461;28;20234;-72
2020/12/14 02:09:32;;;;;;;10.33;6.10;;;2.60;99.90;;;;;;5081669;28;20201;-72
2020/12/14 02:11:58;;;;;;;10.03;5.97;;;2.70;99.90;;;;;;5083808;28;20227;-73
2020/12/14 02:14:25;;;;;;;8.87;5.83;;;2.70;99.90;;;;;;5081678;28;20302;-73
2020/12/14 02:16:51;;;;;;;8.13;5.30;;;2.70;99.90;;;;;;5074946;28;20220;-72
2020/12/14 02:19:18;;;;;;;8.07;5.00;;;2.70;99.90;;;;;;5084895;28;20272;-73
2020/12/14 02:21:48;;;;;;;7.10;4.87;;;2.70;99.90;;;;;;5077233;28;20316;-72
2020/12/14 02:24:16;;;;;;;6.70;4.70;;;2.70;99.90;;;;;;5081210;28;20275;-73
2020/12/14 02:26:48;;;;;;;7.40;4.93;;;2.80;99.90;;;;;;5078026;28;20565;-73
2020/12/14 02:29:15;;;;;;;7.67;5.10;;;2.80;99.90;;;;;;5078615;28;20270;-73
2020/12/14 02:31:41;;;;;;;7.17;4.80;;;2.80;99.90;;;;;;5082282;28;20450;-73
2020/12/14 02:34:07;;;;;;;6.70;5.00;;;2.80;99.90;;;;;;5074952;28;20217;-72
2020/12/14 02:36:34;;;;;;;7.60;4.90;;;2.80;99.90;;;;;;5080254;28;20201;-72
2020/12/14 02:39:00;;;;;;;6.57;4.87;;;2.80;99.90;;;;;;5076049;28;20269;-71
2020/12/14 02:41:28;;;;;;;8.80;5.13;;;2.80;99.90;;;;;;5075931;28;20284;-72
2020/12/14 02:43:54;;;;;;;8.43;5.17;;;2.80;99.90;;;;;;5074141;28;20288;-72
2020/12/14 02:46:21;;;;;;;7.57;5.30;;;2.80;99.90;;;;;;5081237;28;20202;-71
2020/12/14 02:48:47;;;;;;;8.33;5.53;;;2.90;99.90;;;;;;5082457;28;20196;-73
2020/12/14 02:51:18;;;;;;;7.10;4.60;;;2.80;99.90;;;;;;5087220;28;20216;-72
2020/12/14 02:53:44;;;;;;;7.63;4.87;;;2.80;99.90;;;;;;5080743;28;20533;-73
2020/12/14 02:56:10;;;;;;;9.17;5.27;;;2.80;99.90;;;;;;5085372;28;20216;-71
2020/12/14 02:58:38;;;;;;;8.87;5.13;;;2.80;99.90;;;;;;5076731;28;20201;-72
2020/12/14 03:01:04;;;;;;;9.07;4.57;;;2.80;99.90;;;;;;5080604;28;20213;-72
2020/12/14 03:03:30;;;;;;;6.83;4.90;;;2.80;99.90;;;;;;5079318;28;20551;-73
2020/12/14 03:05:57;;;;;;;8.33;5.47;;;2.80;99.90;;;;;;5079571;28;20310;-74
2020/12/14 03:08:25;;;;;;;8.20;5.40;;;2.90;99.90;;;;;;5078380;28;20301;-72
2020/12/14 03:10:52;;;;;;;8.63;5.53;;;2.90;99.90;;;;;;5078273;28;20666;-72
2020/12/14 03:13:18;;;;;;;10.90;5.53;;;2.90;99.90;;;;;;5081426;28;20196;-71
2020/12/14 03:15:46;;;;;;;8.40;5.83;;;2.90;99.90;;;;;;5078712;28;20296;-72
2020/12/14 03:18:12;;;;;;;9.53;5.97;;;2.80;99.90;;;;;;5077768;28;20646;-72
2020/12/14 03:20:38;;;;;;;10.07;6.17;;;2.90;99.90;;;;;;5078621;28;20227;-73
2020/12/14 03:23:05;;;;;;;8.47;5.30;;;2.90;99.90;;;;;;5078308;28;20311;-72
2020/12/14 03:25:31;;;;;;;9.07;5.63;;;2.90;99.90;;;;;;5080569;28;20304;-71
2020/12/14 03:27:57;;;;;;;11.77;6.30;;;2.90;99.90;;;;;;5083211;28;20202;-72
2020/12/14 03:30:24;;;;;;;9.23;6.17;;;2.90;99.90;;;;;;5081841;28;20619;-72
2020/12/14 03:32:51;;;;;;;6.80;4.77;;;3.00;99.90;;;;;;5079145;28;20213;-71
2020/12/14 03:35:17;;;;;;;8.17;5.13;;;3.00;99.90;;;;;;5078876;28;20216;-72
2020/12/14 03:37:44;;;;;;;9.57;5.77;;;2.90;99.90;;;;;;5083050;28;20201;-72
2020/12/14 03:40:10;;;;;;;8.63;6.17;;;2.90;99.90;;;;;;5079039;28;20574;-72
2020/12/14 03:42:36;;;;;;;8.47;5.93;;;2.90;99.90;;;;;;5081910;28;20295;-72
2020/12/14 03:45:04;;;;;;;9.47;5.87;;;2.90;99.90;;;;;;5083917;28;20201;-72
2020/12/14 03:47:30;;;;;;;9.03;5.80;;;2.90;99.90;;;;;;5089085;28;20217;-71
2020/12/14 03:49:58;;;;;;;9.30;6.03;;;2.90;99.90;;;;;;5075851;28;20197;-73
2020/12/14 03:52:24;;;;;;;8.77;5.80;;;2.90;99.90;;;;;;5078268;28;20296;-72
2020/12/14 03:54:50;;;;;;;10.47;5.70;;;2.90;99.90;;;;;;5084045;28;20212;-72
2020/12/14 03:57:17;;;;;;;9.87;5.93;;;2.90;99.90;;;;;;5085163;28;20196;-71
2020/12/14 03:59:43;;;;;;;8.30;5.63;;;3.00;99.90;;;;;;5076243;28;20228;-71
2020/12/14 04:02:10;;;;;;;7.67;4.97;;;2.90;99.90;;;;;;5076103;28;20337;-71
2020/12/14 04:04:36;;;;;;;9.73;5.60;;;3.00;99.90;;;;;;5077130;28;20209;-71
2020/12/14 04:07:03;;;;;;;9.07;5.60;;;3.00;99.90;;;;;;5080015;28;20209;-72
2020/12/14 04:09:29;;;;;;;10.27;5.97;;;3.00;99.90;;;;;;5078216;28;20209;-70
2020/12/14 04:11:56;;;;;;;7.43;5.23;;;3.00;99.90;;;;;;5076295;28;20224;-71
2020/12/14 04:14:23;;;;;;;9.00;5.97;;;3.00;99.90;;;;;;5080903;28;20227;-71
2020/12/14 04:16:51;;;;;;;8.30;5.63;;;2.90;99.90;;;;;;5077190;28;20212;-72
2020/12/14 04:19:22;;;;;;;9.70;6.20;;;2.90;99.90;;;;;;5079891;28;20208;-74
2020/12/14 04:21:49;;;;;;;10.83;7.00;;;3.00;99.90;;;;;;5081991;28;20290;-73
2020/12/14 04:24:17;;;;;;;11.33;6.23;;;3.00;99.90;;;;;;5077585;28;20213;-73
2020/12/14 04:26:43;;;;;;;10.57;6.63;;;3.10;99.90;;;;;;5079407;28;20216;-72
2020/12/14 04:29:10;;;;;;;8.93;5.67;;;3.10;99.90;;;;;;5079105;28;20213;-73
2020/12/14 04:31:37;;;;;;;10.23;6.47;;;3.10;99.90;;;;;;5080736;28;20212;-72
2020/12/14 04:34:03;;;;;;;9.33;6.30;;;3.10;99.90;;;;;;5076026;28;20292;-72
2020/12/14 04:36:30;;;;;;;12.03;6.63;;;3.10;99.90;;;;;;5079224;28;20288;-73
2020/12/14 04:38:56;;;;;;;10.27;6.40;;;3.20;99.90;;;;;;5074907;28;20285;-74
2020/12/14 04:41:24;;;;;;;11.13;6.33;;;3.20;99.90;;;;;;5077036;28;20244;-72
2020/12/14 04:43:51;;;;;;;9.17;5.57;;;3.20;99.90;;;;;;5078091;28;20571;-72
2020/12/14 04:46:19;;;;;;;8.77;5.90;;;3.10;99.90;;;;;;5086397;28;20204;-72
2020/12/14 04:48:46;;;;;;;8.47;5.90;;;3.20;99.90;;;;;;5086052;28;20204;-73
2020/12/14 04:51:12;;;;;;;9.90;6.00;;;3.00;99.90;;;;;;5083308;28;20205;-73
2020/12/14 04:53:41;;;;;;;8.67;5.30;;;3.00;99.90;;;;;;5076268;28;20711;-73
2020/12/14 04:56:09;;;;;;;6.37;5.03;;;3.00;99.90;;;;;;5081295;28;20222;-74
2020/12/14 04:58:37;;;;;;;8.40;5.30;;;3.00;99.90;;;;;;5079580;28;20209;-74
2020/12/14 05:01:04;;;;;;;8.73;4.83;;;3.00;99.90;;;;;;5076334;28;20704;-72
2020/12/14 05:03:30;;;;;;;8.53;5.13;;;3.00;99.90;;;;;;5077320;28;20221;-73
2020/12/14 05:05:57;;;;;;;8.70;4.57;;;3.10;99.90;;;;;;5078403;28;20647;-71
2020/12/14 05:08:27;;;;;;;5.80;4.13;;;3.00;99.90;;;;;;5077906;28;20205;-72
2020/12/14 05:10:54;;;;;;;7.93;4.70;;;3.00;99.90;;;;;;5079021;28;20223;-71
2020/12/14 05:13:24;;;;;;;6.87;4.47;;;3.00;99.90;;;;;;5079941;28;20307;-73
2020/12/14 05:15:52;;;;;;;9.43;4.70;;;3.00;99.90;;;;;;5085802;28;20208;-73
2020/12/14 05:18:22;;;;;;;7.13;4.90;;;3.00;99.90;;;;;;5075704;28;20201;-72
2020/12/14 05:20:57;;;;;;;10.17;6.30;;;3.00;99.90;;;;;;5078022;28;20638;-71
2020/12/14 05:23:24;;;;;;;7.60;5.30;;;3.10;99.90;;;;;;5079554;28;20228;-72
2020/12/14 05:25:50;;;;;;;8.23;5.07;;;3.10;99.90;;;;;;5077889;28;20651;-71
2020/12/14 05:28:19;;;;;;;7.63;4.80;;;3.10;99.90;;;;;;5077451;28;20209;-72
2020/12/14 05:30:47;;;;;;;6.93;4.83;;;3.10;99.90;;;;;;5076206;28;20201;-72
2020/12/14 05:33:16;;;;;;;5.90;4.37;;;3.00;99.90;;;;;;5077367;28;20204;-70
2020/12/14 05:35:44;;;;;;;8.53;4.63;;;3.00;99.90;;;;;;5076983;28;20211;-72
2020/12/14 05:38:21;;;;;;;9.00;5.20;;;3.00;99.90;;;;;;5076874;28;20200;-72
2020/12/14 05:40:50;;;;;;;7.90;5.40;;;3.00;99.90;;;;;;5076337;28;20709;-73
2020/12/14 05:43:19;;;;;;;8.30;5.30;;;3.00;99.90;;;;;;5083129;28;20252;-72
2020/12/14 05:45:46;;;;;;;10.20;5.53;;;3.00;99.90;;;;;;5075234;28;20240;-72
2020/12/14 05:48:25;;;;;;;8.87;5.50;;;3.00;99.90;;;;;;5078085;28;20219;-72
2020/12/14 05:50:54;;;;;;;8.07;5.23;;;3.00;99.90;;;;;;5074478;28;20295;-72
2020/12/14 05:53:21;;;;;;;8.70;5.27;;;3.00;99.90;;;;;;5074898;28;20251;-72
2020/12/14 05:55:48;;;;;;;11.63;6.03;;;3.00;99.90;;;;;;5081181;28;20201;-73
2020/12/14 05:58:16;;;;;;;6.40;4.73;;;3.00;99.90;;;;;;5074742;28;20255;-72
2020/12/14 06:00:46;;;;;;;8.37;5.63;;;3.00;99.90;;;;;;5075124;28;20217;-72
2020/12/14 06:03:13;;;;;;;7.33;5.30;;;3.00;99.90;;;;;;5073676;28;20244;-72
2020/12/14 06:05:41;;;;;;;8.53;5.60;;;3.00;99.90;;;;;;5075931;28;20240;-72
2020/12/14 06:08:24;;;;;;;8.43;5.23;;;3.10;99.90;;;;;;5079548;28;20208;-71
2020/12/14 06:10:51;;;;;;;7.83;5.47;;;3.00;99.90;;;;;;5079591;28;20736;-72
2020/12/14 06:13:23;;;;;;;8.13;5.37;;;3.10;99.90;;;;;;5075530;28;20228;-73
2020/12/14 06:15:50;;;;;;;8.67;5.67;;;3.00;99.90;;;;;;5078362;28;20211;-72
2020/12/14 06:18:21;;;;;;;9.17;5.47;;;3.00;99.90;;;;;;5076072;28;20224;-72
2020/12/14 06:20:49;;;;;;;9.60;6.43;;;3.00;99.90;;;;;;5075952;28;20209;-72
2020/12/14 06:23:17;;;;;;;7.37;5.07;;;3.10;99.90;;;;;;5076127;28;20230;-72
2020/12/14 06:25:45;;;;;;;7.53;5.73;;;3.00;99.90;;;;;;5078132;28;20212;-72
2020/12/14 06:28:27;;;;;;;8.77;5.53;;;3.00;99.90;;;;;;5082577;28;20208;-72
2020/12/14 06:30:54;;;;;;;7.90;5.33;;;3.00;99.90;;;;;;5079017;28;20193;-72
2020/12/14 06:33:33;;;;;;;9.57;6.40;;;3.10;99.90;;;;;;5077906;28;20207;-72
2020/12/14 06:36:15;;;;;;;10.47;7.17;;;3.10;99.90;;;;;;5077853;28;20200;-72
2020/12/14 06:38:44;;;;;;;10.97;6.00;;;3.10;99.90;;;;;;5078606;28;20209;-73
2020/12/14 06:41:12;;;;;;;6.77;4.83;;;3.10;99.90;;;;;;5081697;28;20299;-74
2020/12/14 06:43:39;;;;;;;8.07;5.90;;;3.20;99.90;;;;;;5079775;28;20716;-73
2020/12/14 06:46:06;;;;;;;8.77;6.13;;;3.10;99.90;;;;;;5077058;28;20216;-73
2020/12/14 06:48:43;;;;;;;10.73;6.40;;;3.10;99.90;;;;;;5077129;28;20215;-74
2020/12/14 06:51:14;;;;;;;8.33;5.23;;;3.10;99.90;;;;;;5078713;28;20291;-73
2020/12/14 06:53:50;;;;;;;10.50;7.07;;;3.10;99.90;;;;;;5079022;28;20555;-73
2020/12/14 06:56:43;;;;;;;8.67;6.00;;;3.10;99.90;;;;;;5080276;28;20631;-72
2020/12/14 06:59:27;;;;;;;8.90;6.13;;;3.10;99.90;;;;;;5084894;28;20202;-72
2020/12/14 07:01:57;;;;;;;8.80;6.67;;;3.10;99.90;;;;;;5080192;28;20238;-75
2020/12/14 07:04:41;;;;;;;10.23;6.97;;;3.00;99.90;;;;;;5082136;28;21353;-73
2020/12/14 07:07:31;;;;;;;9.83;6.07;;;2.90;99.90;;;;;;5087310;28;20287;-72
2020/12/14 07:10:25;;;;;;;9.67;6.60;;;2.80;99.90;;;;;;5090431;28;20182;-79
2020/12/14 07:12:51;;;;;;;11.60;6.93;;;2.80;99.90;;;;;;5056021;28;20250;-77
2020/12/14 07:15:29;;;;;;;10.47;6.93;;;2.90;99.90;;;;;;5092408;28;20251;-79
2020/12/14 07:18:09;;;;;;;9.33;5.67;;;2.90;99.90;;;;;;5095079;28;20642;-78
2020/12/14 07:20:46;;;;;;;9.33;5.80;;;3.00;99.90;;;;;;5090171;28;20213;-78
2020/12/14 07:23:18;;;;;;;7.77;5.37;;;3.10;99.90;;;;;;5087567;28;20252;-78
2020/12/14 07:25:48;;;;;;;8.43;6.83;;;3.00;99.90;;;;;;5085193;28;20236;-79
2020/12/14 07:28:16;;;;;;;10.20;6.90;;;3.20;99.90;;;;;;5092566;28;20209;-78
2020/12/14 07:30:42;;;;;;;11.17;7.50;;;3.10;99.90;;;;;;5093925;28;20212;-80
2020/12/14 07:33:09;;;;;;;8.97;6.50;;;3.10;99.90;;;;;;5104214;28;20231;-79
2020/12/14 07:35:35;;;;;;;9.93;6.67;;;3.20;99.90;;;;;;5100633;28;20272;-76
2020/12/14 07:38:03;;;;;;;9.50;6.27;;;3.30;99.90;;;;;;5081963;28;20223;-78
2020/12/14 07:40:33;;;;;;;9.37;6.30;;;3.30;99.90;;;;;;5087688;28;20262;-79
2020/12/14 07:42:59;;;;;;;10.90;6.63;;;3.30;99.90;;;;;;5085881;28;20244;-76
2020/12/14 07:45:26;;;;;;;9.37;6.50;;;3.30;99.90;;;;;;5086242;28;20575;-76
2020/12/14 07:47:54;;;;;;;12.47;7.07;;;3.40;99.90;;;;;;5091411;28;20631;-77
2020/12/14 07:50:23;;;;;;;9.50;6.57;;;3.40;99.90;;;;;;5089079;28;20304;-78
2020/12/14 07:52:50;;;;;;;9.10;6.93;;;3.40;99.90;;;;;;5084559;28;20650;-77
2020/12/14 07:55:21;;;;;;;9.97;6.13;;;3.50;99.90;;;;;;5085281;28;20205;-80
2020/12/14 07:57:50;;;;;;;11.50;6.80;;;3.50;99.90;;;;;;5092241;28;20197;-82
2020/12/14 08:00:20;;;;;;;11.53;7.00;;;3.50;99.90;;;;;;5104315;28;20208;-81
2020/12/14 08:02:49;;;;;;;10.17;7.13;;;3.40;99.90;;;;;;5097126;28;20229;-79
2020/12/14 08:05:17;;;;;;;12.13;6.80;;;3.40;99.90;;;;;;5095654;28;20232;-81
2020/12/14 08:07:46;;;;;;;8.80;5.43;;;3.30;99.90;;;;;;5098940;28;20594;-78
2020/12/14 08:10:14;;;;;;;9.70;7.47;;;3.30;99.90;;;;;;5096294;28;20251;-79
2020/12/14 08:12:42;;;;;;;10.40;7.07;;;3.20;99.90;;;;;;5097287;28;20320;-77
2020/12/14 08:15:14;;;;;;;11.50;6.60;;;3.20;99.90;;;;;;5084681;28;20702;-79
2020/12/14 08:17:41;;;;;;;10.57;6.53;;;3.20;99.90;;;;;;5094662;28;20198;-75
2020/12/14 08:20:24;;;;;;;15.17;6.67;;;3.20;99.90;;;;;;5092719;28;20273;-77
2020/12/14 08:22:51;;;;;;;10.67;6.80;;;3.30;99.90;;;;;;5095889;28;20307;-79
2020/12/14 08:25:21;;;;;;;11.23;7.17;;;3.30;99.90;;;;;;5088137;28;20213;-79
2020/12/14 08:27:50;;;;;;;12.70;7.03;;;3.30;99.90;;;;;;5091015;28;20211;-77
2020/12/14 08:30:19;;;;;;;12.13;7.20;;;3.30;99.90;;;;;;5087031;28;20269;-76
2020/12/14 08:33:01;;;;;;;12.97;7.90;;;3.40;99.90;;;;;;5084150;28;20288;-77
2020/12/14 08:35:28;;;;;;;13.00;7.00;;;3.40;99.90;;;;;;5083749;28;20205;-76
2020/12/14 08:38:04;;;;;;;11.07;6.63;;;3.40;99.90;;;;;;5076718;28;20233;-77
2020/12/14 08:40:31;;;;;;;11.67;7.90;;;3.40;99.90;;;;;;5077266;28;20635;-77
2020/12/14 08:43:11;;;;;;;10.80;7.10;;;3.40;99.90;;;;;;5079016;28;20940;-77
2020/12/14 08:45:39;;;;;;;12.63;6.47;;;3.30;99.90;;;;;;5078645;28;20619;-77
2020/12/14 08:48:07;;;;;;;11.27;6.77;;;3.30;99.90;;;;;;5086497;28;20216;-77
2020/12/14 08:50:34;;;;;;;10.93;7.00;;;3.30;99.90;;;;;;5084074;28;20231;-77
2020/12/14 08:53:01;;;;;;;11.37;7.77;;;3.30;99.90;;;;;;5083436;28;20201;-76
2020/12/14 08:55:35;;;;;;;14.53;7.80;;;3.20;99.90;;;;;;5078390;28;20247;-77
2020/12/14 08:58:02;;;;;;;13.80;8.03;;;3.20;99.90;;;;;;5076944;28;20209;-78
2020/12/14 09:00:29;;;;;;;13.03;7.67;;;3.30;99.90;;;;;;5083259;28;20217;-79
2020/12/14 09:03:01;;;;;;;13.17;7.80;;;3.30;99.90;;;;;;5083304;28;20673;-78
2020/12/14 09:05:32;;;;;;;11.37;7.10;;;3.30;99.90;;;;;;5084293;28;20205;-76
2020/12/14 09:08:10;;;;;;;11.87;7.43;;;3.40;99.90;;;;;;5086175;28;20243;-74
2020/12/14 09:10:37;;;;;;;13.90;8.00;;;3.40;99.90;;;;;;5082148;28;20283;-71
2020/12/14 09:13:03;;;;;;;11.53;7.00;;;3.40;99.90;;;;;;5076797;28;20244;-75
2020/12/14 09:15:30;;;;;;;12.17;7.43;;;3.40;99.90;;;;;;5080836;28;20241;-71
2020/12/14 09:18:01;;;;;;;11.60;7.77;;;3.40;99.90;;;;;;5090203;28;20240;-71
2020/12/14 09:20:28;;;;;;;12.87;7.80;;;3.40;99.90;;;;;;5078563;28;20201;-71
2020/12/14 09:22:54;;;;;;;11.17;7.97;;;3.40;99.90;;;;;;5075971;28;20229;-72
2020/12/14 09:25:20;;;;;;;13.10;7.53;;;3.40;99.90;;;;;;5079131;28;20213;-74
2020/12/14 09:27:47;;;;;;;12.60;8.07;;;3.40;99.90;;;;;;5081266;28;20683;-70
2020/12/14 09:30:15;;;;;;;15.83;8.13;;;3.40;99.90;;;;;;5080091;28;20212;-70
2020/12/14 09:32:41;;;;;;;10.07;7.17;;;3.50;99.90;;;;;;5079975;28;20212;-72
2020/12/14 09:35:08;;;;;;;13.27;8.20;;;3.50;99.90;;;;;;5076604;28;20216;-69
2020/12/14 09:37:35;;;;;;;11.97;7.40;;;3.50;99.90;;;;;;5077256;28;20202;-72
2020/12/14 09:40:02;;;;;;;13.13;8.33;;;3.50;99.90;;;;;;5073966;28;20251;-70
2020/12/14 09:42:28;;;;;;;14.90;7.40;;;3.50;99.90;;;;;;5073843;28;20303;-71
2020/12/14 09:44:55;;;;;;;10.03;7.20;;;3.50;99.90;;;;;;5077571;28;20662;-70
2020/12/14 09:47:21;;;;;;;11.20;7.27;;;3.50;99.90;;;;;;5078658;28;20217;-70
2020/12/14 09:49:48;;;;;;;11.13;7.63;;;3.50;99.90;;;;;;5077711;28;20246;-71
2020/12/14 09:52:15;;;;;;;8.27;6.23;;;3.50;99.90;;;;;;5077197;28;20213;-73
2020/12/14 09:54:42;;;;;;;12.80;7.57;;;3.50;99.90;;;;;;5077644;28;20285;-74
2020/12/14 09:57:08;;;;;;;10.10;6.80;;;3.60;99.90;;;;;;5075151;28;20302;-70
2020/12/14 09:59:35;;;;;;;11.57;7.60;;;3.60;99.90;;;;;;5078242;28;20292;-70
2020/12/14 10:02:01;;;;;;;11.40;7.03;;;3.60;99.90;;;;;;5074095;28;20292;-70
2020/12/14 10:04:30;;;;;;;11.87;7.77;;;3.60;99.90;;;;;;5077941;28;20311;-71
2020/12/14 10:06:56;;;;;;;17.63;10.87;;;3.60;99.90;;;;;;5075481;28;20208;-70
2020/12/14 10:09:28;;;;;;;13.17;8.40;;;3.70;99.90;;;;;;5078343;28;20352;-71
2020/12/14 10:11:55;;;;;;;13.70;8.53;;;3.70;99.90;;;;;;5071513;28;20229;-69
2020/12/14 10:14:22;;;;;;;13.10;8.50;;;3.70;99.90;;;;;;5072452;28;20211;-71
2020/12/14 10:16:49;;;;;;;12.43;7.67;;;3.70;99.90;;;;;;5081790;28;20207;-70
2020/12/14 10:19:15;;;;;;;14.77;8.43;;;3.70;99.90;;;;;;5073109;28;20212;-69
2020/12/14 10:21:42;;;;;;;17.60;9.93;;;3.70;99.90;;;;;;5082722;28;20201;-70
2020/12/14 10:24:09;;;;;;;14.27;8.67;;;3.70;99.90;;;;;;5073005;28;20705;-70
2020/12/14 10:26:37;;;;;;;14.80;9.20;;;3.60;99.90;;;;;;5081198;28;20204;-69
2020/12/14 10:29:04;;;;;;;15.67;8.33;;;3.60;99.90;;;;;;5076973;28;20328;-70
2020/12/14 10:31:30;;;;;;;12.60;7.40;;;3.70;99.90;;;;;;5076198;28;20209;-70
2020/12/14 10:33:59;;;;;;;12.73;8.13;;;3.70;99.90;;;;;;5073048;28;20295;-69
2020/12/14 10:36:25;;;;;;;11.97;7.30;;;3.60;99.90;;;;;;5076200;28;20215;-69
2020/12/14 10:38:53;;;;;;;14.27;8.00;;;3.60;99.90;;;;;;5076127;28;20210;-68
2020/12/14 10:41:20;;;;;;;13.47;8.27;;;3.60;99.90;;;;;;5076521;28;20677;-69
2020/12/14 10:43:47;;;;;;;14.13;9.00;;;3.50;99.90;;;;;;5076678;28;20264;-69
2020/12/14 10:46:13;;;;;;;14.17;8.37;;;3.60;99.90;;;;;;5072754;28;20662;-70
2020/12/14 10:48:40;;;;;;;15.77;8.50;;;3.60;99.90;;;;;;5082099;28;20284;-69
2020/12/14 10:51:06;;;;;;;12.93;7.90;;;3.60;99.90;;;;;;5088073;28;20641;-68
2020/12/14 10:53:33;;;;;;;15.30;8.23;;;3.70;99.90;;;;;;5078465;28;20243;-70
2020/12/14 10:56:00;;;;;;;14.30;7.73;;;3.60;99.90;;;;;;5082092;28;20270;-69
2020/12/14 10:58:26;;;;;;;14.33;8.87;;;3.60;99.90;;;;;;5071394;28;20244;-69
2020/12/14 11:00:53;;;;;;;12.33;7.93;;;3.60;99.90;;;;;;5080643;28;20477;-69
2020/12/14 11:03:23;;;;;;;12.47;8.13;;;3.60;99.90;;;;;;5075818;28;20239;-71
2020/12/14 11:05:52;;;;;;;12.73;8.27;;;3.60;99.90;;;;;;5073731;28;20205;-69
2020/12/14 11:08:18;;;;;;;13.40;7.90;;;3.60;99.90;;;;;;5077384;28;20204;-71
2020/12/14 11:10:45;;;;;;;14.93;9.13;;;3.60;99.90;;;;;;5077365;28;20213;-71
2020/12/14 11:13:11;;;;;;;12.30;8.37;;;3.60;99.90;;;;;;5082972;28;20282;-71
2020/12/14 11:15:38;;;;;;;12.23;7.93;;;3.70;99.90;;;;;;5079984;28;20236;-71
2020/12/14 11:18:05;;;;;;;17.00;9.30;;;3.70;99.90;;;;;;5084108;28;20236;-70
2020/12/14 11:20:33;;;;;;;15.03;8.80;;;3.70;99.90;;;;;;5086051;28;20207;-69
2020/12/14 11:23:00;;;;;;;12.20;7.93;;;3.70;99.90;;;;;;5089979;28;20220;-70
2020/12/14 11:25:26;;;;;;;13.57;8.67;;;3.70;99.90;;;;;;5079244;28;20205;-71
2020/12/14 11:27:52;;;;;;;14.13;9.03;;;3.70;99.90;;;;;;5080153;28;20213;-71
2020/12/14 11:30:19;;;;;;;13.50;8.23;;;3.80;99.90;;;;;;5080857;28;20296;-69
2020/12/14 11:32:45;;;;;;;13.93;8.50;;;3.70;99.90;;;;;;5081557;28;20209;-69
2020/12/14 11:35:13;;;;;;;13.27;8.03;;;3.70;99.90;;;;;;5079053;28;20213;-68
2020/12/14 11:37:39;;;;;;;15.43;8.83;;;3.70;99.90;;;;;;5075249;28;20292;-68
2020/12/14 11:40:07;;;;;;;12.27;8.17;;;3.70;99.90;;;;;;5075245;28;20215;-68
2020/12/14 11:42:37;;;;;;;14.53;9.17;;;3.70;99.90;;;;;;5080403;28;20238;-68
2020/12/14 11:45:07;;;;;;;14.30;8.83;;;3.70;99.90;;;;;;5080379;28;20215;-69
2020/12/14 11:47:34;;;;;;;17.53;9.60;;;3.80;99.90;;;;;;5078288;28;20661;-69
2020/12/14 11:50:00;;;;;;;14.30;9.03;;;3.70;99.90;;;;;;5080898;28;20227;-68
2020/12/14 11:52:29;;;;;;;13.60;8.90;;;3.70;99.90;;;;;;5082970;28;20208;-69
2020/12/14 11:54:55;;;;;;;12.13;8.27;;;3.70;99.90;;;;;;5080115;28;20254;-70
2020/12/14 11:57:21;;;;;;;13.37;7.87;;;3.70;99.90;;;;;;5081808;28;20200;-69
2020/12/14 11:59:48;;;;;;;11.50;7.50;;;3.70;99.90;;;;;;5081045;28;20295;-70
2020/12/14 12:02:15;;;;;;;13.33;7.73;;;3.70;99.90;;;;;;5076494;28;20720;-71
2020/12/14 12:04:42;;;;;;;11.67;8.10;;;3.70;99.90;;;;;;5074544;28;20232;-69
2020/12/14 12:07:09;;;;;;;11.70;7.97;;;3.80;99.90;;;;;;5073555;28;20202;-69
2020/12/14 12:09:37;;;;;;;12.50;8.83;;;3.70;99.90;;;;;;5081189;28;20214;-71
2020/12/14 12:12:05;;;;;;;11.50;7.80;;;3.60;99.90;;;;;;5077825;28;21076;-69
2020/12/14 12:14:31;;;;;;;10.40;7.93;;;3.60;99.90;;;;;;5076835;28;20276;-69
2020/12/14 12:16:57;;;;;;;12.30;8.53;;;3.50;99.90;;;;;;5078793;28;20292;-70
2020/12/14 12:19:24;;;;;;;14.40;9.20;;;3.50;99.90;;;;;;5080855;28;20213;-71
2020/12/14 12:21:51;;;;;;;14.90;8.80;;;3.50;99.90;;;;;;5075328;28;20208;-69
2020/12/14 12:24:17;;;;;;;14.77;9.70;;;3.60;99.90;;;;;;5084658;28;20224;-70
2020/12/14 12:26:49;;;;;;;14.80;9.57;;;3.60;99.90;;;;;;5080258;28;20209;-68
2020/12/14 12:29:16;;;;;;;14.47;9.63;;;3.60;99.90;;;;;;5076705;28;20507;-70
2020/12/14 12:31:48;;;;;;;15.43;9.70;;;3.60;99.90;;;;;;5078205;28;20209;-69
2020/12/14 12:34:14;;;;;;;15.77;9.80;;;3.60;99.90;;;;;;5078821;28;20200;-69
2020/12/14 12:36:41;;;;;;;15.13;9.40;;;3.60;99.90;;;;;;5078693;28;20201;-69
2020/12/14 12:39:07;;;;;;;13.03;8.40;;;3.60;99.90;;;;;;5078201;28;20205;-69
2020/12/14 12:41:34;;;;;;;16.07;9.77;;;3.60;99.90;;;;;;5076716;28;20332;-69
2020/12/14 12:44:01;;;;;;;12.77;9.27;;;3.60;99.90;;;;;;5076663;28;20393;-68
2020/12/14 12:46:27;;;;;;;15.37;8.93;;;3.60;99.90;;;;;;5075312;28;20205;-70
2020/12/14 12:48:54;;;;;;;15.50;9.13;;;3.60;99.90;;;;;;5078194;28;20659;-69
2020/12/14 12:51:20;;;;;;;16.60;10.00;;;3.70;99.90;;;;;;5079923;28;20299;-71
2020/12/14 12:53:47;;;;;;;15.83;9.83;;;3.60;99.90;;;;;;5075443;28;20232;-68
2020/12/14 12:56:17;;;;;;;15.17;10.20;;;3.70;99.90;;;;;;5080358;28;20950;-69